createdAt,value
2018-06-19T00:01:19.992Z,15.50
2018-06-19T00:03:48.361Z,15.50
2018-06-19T00:06:16.706Z,15.50
2018-06-19T00:08:45.630Z,15.50
2018-06-19T00:11:20.715Z,15.50
2018-06-19T00:13:49.073Z,15.50
2018-06-19T00:16:17.424Z,15.50
2018-06-19T00:21:27.027Z,15.60
2018-06-19T00:23:55.353Z,15.60
2018-06-19T00:26:23.683Z,15.60
2018-06-19T00:28:52.052Z,15.50
2018-06-19T00:31:20.382Z,15.50
2018-06-19T00:33:48.705Z,15.50
2018-06-19T00:36:17.032Z,15.50
2018-06-19T00:41:13.416Z,15.50
2018-06-19T00:43:41.756Z,15.50
2018-06-19T00:46:10.166Z,15.50
2018-06-19T00:48:38.596Z,15.50
2018-06-19T00:51:06.945Z,15.50
2018-06-19T00:53:35.294Z,15.40
2018-06-19T00:56:14.948Z,15.40
2018-06-19T00:58:43.345Z,15.40
2018-06-19T01:01:11.653Z,15.30
2018-06-19T01:03:40.014Z,15.30
2018-06-19T01:06:08.448Z,15.30
2018-06-19T01:08:36.795Z,15.30
2018-06-19T01:11:05.146Z,15.30
2018-06-19T01:13:33.454Z,15.20
2018-06-19T01:16:01.787Z,15.30
2018-06-19T01:18:30.233Z,15.20
2018-06-19T01:23:26.813Z,15.20
2018-06-19T01:25:55.154Z,15.30
2018-06-19T01:28:23.531Z,15.20
2018-06-19T01:30:51.880Z,15.30
2018-06-19T01:33:20.226Z,15.20
2018-06-19T01:35:48.608Z,15.20
2018-06-19T01:38:17.013Z,15.20
2018-06-19T01:40:45.285Z,15.20
2018-06-19T01:43:13.676Z,15.10
2018-06-19T01:45:42.104Z,15.10
2018-06-19T01:48:10.450Z,15.00
2018-06-19T01:50:39.240Z,15.00
2018-06-19T01:53:07.580Z,15.00
2018-06-19T01:55:36.028Z,15.00
2018-06-19T01:58:04.414Z,15.00
2018-06-19T02:00:32.748Z,15.00
2018-06-19T02:03:01.075Z,15.00
2018-06-19T02:05:29.409Z,14.90
2018-06-19T02:07:57.751Z,14.90
2018-06-19T02:10:26.062Z,14.80
2018-06-19T02:12:54.436Z,14.80
2018-06-19T02:15:22.848Z,14.80
2018-06-19T02:17:51.196Z,14.80
2018-06-19T02:20:20.524Z,14.80
2018-06-19T02:22:48.850Z,14.70
2018-06-19T02:25:17.186Z,14.70
2018-06-19T02:27:46.104Z,14.70
2018-06-19T02:30:14.436Z,14.60
2018-06-19T02:35:11.080Z,14.60
2018-06-19T02:37:39.434Z,14.60
2018-06-19T02:40:07.801Z,14.60
2018-06-19T02:42:36.182Z,14.60
2018-06-19T02:45:04.957Z,14.60
2018-06-19T02:47:33.236Z,14.60
2018-06-19T02:50:01.624Z,14.60
2018-06-19T02:52:30.001Z,14.60
2018-06-19T02:54:58.360Z,14.60
2018-06-19T02:57:26.710Z,14.60
2018-06-19T02:59:55.032Z,14.60
2018-06-19T03:02:23.559Z,14.60
2018-06-19T03:04:51.960Z,14.60
2018-06-19T03:07:20.294Z,14.60
2018-06-19T03:09:48.660Z,14.60
2018-06-19T03:12:16.994Z,14.50
2018-06-19T03:14:45.323Z,14.50
2018-06-19T03:17:13.663Z,14.40
2018-06-19T03:19:42.012Z,14.30
2018-06-19T03:24:38.895Z,14.20
2018-06-19T03:27:07.298Z,14.20
2018-06-19T03:29:35.661Z,14.20
2018-06-19T03:32:03.994Z,14.20
2018-06-19T03:34:32.375Z,14.20
2018-06-19T03:37:00.737Z,14.20
2018-06-19T03:39:29.063Z,14.00
2018-06-19T03:41:57.403Z,14.00
2018-06-19T03:44:25.733Z,14.10
2018-06-19T03:46:54.066Z,14.10
2018-06-19T03:49:22.409Z,14.20
2018-06-19T03:51:50.822Z,14.20
2018-06-19T03:54:20.245Z,14.20
2018-06-19T03:56:48.904Z,14.20
2018-06-19T03:59:17.298Z,14.00
2018-06-19T04:04:13.887Z,14.10
2018-06-19T04:06:42.305Z,14.10
2018-06-19T04:09:10.651Z,14.10
2018-06-19T04:11:38.996Z,14.10
2018-06-19T04:14:14.020Z,14.20
2018-06-19T04:16:42.973Z,14.10
2018-06-19T04:19:12.016Z,14.20
2018-06-19T04:24:08.603Z,14.20
2018-06-19T04:26:36.951Z,14.30
2018-06-19T04:29:05.900Z,14.30
2018-06-19T04:31:34.253Z,14.30
2018-06-19T04:34:02.595Z,14.30
2018-06-19T04:38:58.989Z,14.30
2018-06-19T04:41:27.309Z,14.30
2018-06-19T04:43:55.655Z,14.40
2018-06-19T04:46:24.004Z,14.40
2018-06-19T04:48:52.357Z,14.40
2018-06-19T04:51:20.732Z,14.40
2018-06-19T04:53:49.477Z,14.40
2018-06-19T04:56:17.855Z,14.50
2018-06-19T04:58:46.203Z,14.40
2018-06-19T05:01:14.561Z,14.50
2018-06-19T05:03:42.998Z,14.50
2018-06-19T05:06:11.357Z,14.50
2018-06-19T05:08:39.723Z,14.60
2018-06-19T05:11:08.082Z,14.60
2018-06-19T05:13:36.459Z,14.60
2018-06-19T05:16:05.113Z,14.70
2018-06-19T05:18:33.549Z,14.80
2018-06-19T05:21:01.966Z,14.80
2018-06-19T05:23:30.419Z,14.90
2018-06-19T05:25:58.825Z,15.00
2018-06-19T05:28:27.300Z,15.10
2018-06-19T05:30:55.731Z,15.20
2018-06-19T05:33:24.175Z,15.30
2018-06-19T05:38:20.687Z,15.60
2018-06-19T05:40:49.055Z,15.70
2018-06-19T05:43:17.389Z,15.80
2018-06-19T05:45:45.769Z,15.90
2018-06-19T05:48:14.146Z,16.00
2018-06-19T05:50:42.534Z,16.00
2018-06-19T05:53:10.954Z,16.10
2018-06-19T05:55:39.304Z,16.20
2018-06-19T05:58:07.659Z,16.30
2018-06-19T06:00:35.993Z,16.30
2018-06-19T06:03:04.361Z,16.40
2018-06-19T06:05:32.786Z,16.50
2018-06-19T06:08:01.167Z,16.50
2018-06-19T06:10:30.247Z,16.60
2018-06-19T06:12:58.563Z,16.80
2018-06-19T06:15:26.911Z,16.90
2018-06-19T06:17:55.417Z,17.00
2018-06-19T06:20:23.829Z,17.10
2018-06-19T06:22:52.203Z,17.10
2018-06-19T06:25:20.513Z,17.30
2018-06-19T06:27:48.859Z,17.40
2018-06-19T06:30:17.212Z,17.60
2018-06-19T06:32:45.841Z,17.60
2018-06-19T06:35:14.317Z,17.70
2018-06-19T06:37:42.647Z,17.70
2018-06-19T06:40:10.989Z,17.70
2018-06-19T06:42:39.371Z,17.70
2018-06-19T06:45:07.735Z,17.80
2018-06-19T06:47:36.109Z,18.00
2018-06-19T06:50:04.465Z,18.10
2018-06-19T06:52:32.910Z,18.10
2018-06-19T06:55:02.056Z,18.10
2018-06-19T06:57:30.391Z,18.20
2018-06-19T06:59:58.724Z,18.10
2018-06-19T07:02:27.107Z,18.20
2018-06-19T07:04:55.549Z,18.40
2018-06-19T07:07:23.869Z,18.60
2018-06-19T07:09:52.257Z,18.70
2018-06-19T07:12:20.931Z,18.80
2018-06-19T07:14:49.273Z,18.90
2018-06-19T07:17:17.631Z,19.00
2018-06-19T07:19:46.010Z,18.90
2018-06-19T07:22:14.355Z,18.80
2018-06-19T07:24:42.777Z,18.90
2018-06-19T07:27:11.245Z,19.30
2018-06-19T07:29:39.637Z,19.30
2018-06-19T07:34:36.035Z,19.30
2018-06-19T07:37:04.454Z,19.20
2018-06-19T07:42:01.038Z,19.30
2018-06-19T07:44:29.369Z,19.20
2018-06-19T07:46:57.691Z,19.10
2018-06-19T07:49:26.116Z,19.30
2018-06-19T07:51:54.481Z,19.50
2018-06-19T07:54:22.945Z,19.60
2018-06-19T07:56:51.344Z,19.50
2018-06-19T07:59:19.909Z,19.50
2018-06-19T08:01:48.241Z,19.60
2018-06-19T08:06:44.847Z,19.50
2018-06-19T08:09:13.259Z,19.70
2018-06-19T08:11:41.594Z,19.80
2018-06-19T08:14:10.298Z,20.00
2018-06-19T08:16:38.658Z,20.10
2018-06-19T08:19:07.024Z,20.10
2018-06-19T08:21:36.102Z,19.90
2018-06-19T08:24:04.430Z,19.90
2018-06-19T08:26:32.803Z,19.80
2018-06-19T08:29:01.263Z,19.90
2018-06-19T08:31:30.207Z,20.00
2018-06-19T08:34:05.320Z,20.10
2018-06-19T08:36:33.717Z,20.20
2018-06-19T08:39:02.111Z,20.40
2018-06-19T08:41:30.496Z,20.40
2018-06-19T08:43:58.812Z,20.40
2018-06-19T08:46:27.138Z,20.40
2018-06-19T08:48:55.501Z,20.40
2018-06-19T08:51:23.836Z,20.60
2018-06-19T08:53:58.598Z,20.90
2018-06-19T08:56:26.926Z,20.90
2018-06-19T08:58:55.333Z,20.90
2018-06-19T09:01:23.672Z,20.70
2018-06-19T09:03:52.673Z,20.80
2018-06-19T09:06:21.610Z,21.00
2018-06-19T09:08:50.009Z,20.80
2018-06-19T09:11:18.577Z,20.90
2018-06-19T09:13:46.899Z,21.00
2018-06-19T09:21:11.358Z,20.90
2018-06-19T09:23:39.712Z,21.10
2018-06-19T09:26:08.325Z,21.30
2018-06-19T09:28:36.691Z,21.30
2018-06-19T09:31:05.431Z,21.50
2018-06-19T09:33:33.861Z,21.30
2018-06-19T09:36:02.189Z,21.20
2018-06-19T09:38:30.586Z,21.20
2018-06-19T09:40:59.012Z,21.20
2018-06-19T09:43:27.348Z,21.00
2018-06-19T09:45:55.713Z,21.20
2018-06-19T09:48:24.074Z,21.20
2018-06-19T09:50:52.432Z,21.30
2018-06-19T09:53:21.275Z,21.40
2018-06-19T09:55:49.735Z,21.50
2018-06-19T09:58:18.382Z,21.40
2018-06-19T10:03:15.702Z,21.40
2018-06-19T10:08:12.308Z,21.40
2018-06-19T10:10:40.658Z,21.40
2018-06-19T10:13:09.025Z,21.40
2018-06-19T10:15:37.379Z,21.40
2018-06-19T10:18:05.728Z,21.50
2018-06-19T10:20:34.140Z,21.30
2018-06-19T10:23:02.450Z,21.40
2018-06-19T10:25:30.784Z,21.50
2018-06-19T10:27:59.160Z,21.60
2018-06-19T10:30:27.520Z,21.50
2018-06-19T10:32:55.956Z,21.60
2018-06-19T10:35:24.287Z,21.80
2018-06-19T10:37:53.177Z,21.90
2018-06-19T10:40:21.730Z,21.90
2018-06-19T10:42:50.059Z,21.80
2018-06-19T10:45:18.428Z,21.80
2018-06-19T10:47:46.758Z,21.90
2018-06-19T10:50:15.105Z,22.00
2018-06-19T10:52:43.512Z,22.30
2018-06-19T10:55:11.862Z,22.50
2018-06-19T10:57:40.226Z,22.80
2018-06-19T11:00:08.873Z,22.80
2018-06-19T11:02:37.215Z,22.90
2018-06-19T11:05:05.846Z,22.70
2018-06-19T11:10:02.500Z,22.50
2018-06-19T11:12:30.840Z,22.40
2018-06-19T11:14:59.180Z,22.60
2018-06-19T11:17:27.555Z,22.60
2018-06-19T11:19:55.885Z,22.60
2018-06-19T11:22:24.242Z,22.60
2018-06-19T11:24:52.648Z,23.00
2018-06-19T11:27:20.979Z,23.30
2018-06-19T11:29:49.366Z,23.60
2018-06-19T11:32:17.786Z,23.40
2018-06-19T11:34:46.134Z,23.40
2018-06-19T11:37:14.479Z,23.50
2018-06-19T11:39:42.806Z,23.30
2018-06-19T11:42:11.166Z,23.20
2018-06-19T11:47:07.900Z,23.10
2018-06-19T11:49:36.240Z,22.90
2018-06-19T11:52:04.599Z,23.00
2018-06-19T11:54:33.109Z,23.10
2018-06-19T11:57:01.682Z,23.00
2018-06-19T11:59:30.050Z,23.10
2018-06-19T12:01:58.420Z,23.30
2018-06-19T12:04:26.780Z,23.40
2018-06-19T12:06:55.193Z,23.60
2018-06-19T12:09:23.532Z,23.50
2018-06-19T12:11:51.864Z,23.40
2018-06-19T12:14:20.248Z,23.60
2018-06-19T12:16:48.582Z,23.60
2018-06-19T12:19:17.510Z,23.30
2018-06-19T12:21:45.880Z,23.20
2018-06-19T12:24:14.242Z,23.30
2018-06-19T12:26:42.752Z,23.30
2018-06-19T12:29:11.123Z,23.40
2018-06-19T12:31:39.522Z,23.60
2018-06-19T12:34:07.903Z,23.90
2018-06-19T12:36:36.375Z,23.90
2018-06-19T12:39:07.420Z,23.80
2018-06-19T12:41:40.227Z,23.70
2018-06-19T12:44:08.862Z,23.80
2018-06-19T12:46:37.604Z,23.60
2018-06-19T12:51:45.880Z,24.00
2018-06-19T12:56:22.347Z,24.10
2018-06-19T12:58:50.717Z,24.00
2018-06-19T13:01:19.781Z,24.10
2018-06-19T13:03:59.406Z,24.00
2018-06-19T13:06:30.633Z,24.10
2018-06-19T13:08:59.005Z,24.10
2018-06-19T13:11:27.364Z,24.20
2018-06-19T13:14:06.846Z,24.50
2018-06-19T13:16:46.506Z,24.70
2018-06-19T13:21:24.048Z,24.90
2018-06-19T13:23:52.395Z,24.80
2018-06-19T13:26:20.754Z,24.40
2018-06-19T13:29:58.908Z,24.60
2018-06-19T13:32:27.535Z,24.60
2018-06-19T13:34:55.914Z,24.50
2018-06-19T13:37:24.285Z,24.50
2018-06-19T13:41:04.365Z,24.50
2018-06-19T13:43:44.305Z,24.50
2018-06-19T13:46:12.985Z,24.70
2018-06-19T13:48:41.982Z,25.00
2018-06-19T13:51:11.003Z,25.30
2018-06-19T13:53:39.640Z,25.70
2018-06-19T13:57:18.915Z,25.80
2018-06-19T13:59:47.824Z,25.80
2018-06-19T14:02:16.484Z,25.60
2018-06-19T14:04:44.863Z,25.70
2018-06-19T14:07:13.381Z,25.80
2018-06-19T14:09:52.989Z,25.90
2018-06-19T14:13:09.183Z,25.90
2018-06-19T14:15:39.113Z,25.40
2018-06-19T14:18:07.931Z,24.70
2018-06-19T14:23:04.829Z,24.70
2018-06-19T14:25:33.195Z,25.00
2018-06-19T14:28:01.585Z,25.40
2018-06-19T14:30:30.149Z,25.60
2018-06-19T14:32:58.567Z,25.30
2018-06-19T14:37:54.905Z,24.90
2018-06-19T14:40:23.340Z,25.00
2018-06-19T14:42:51.692Z,24.80
2018-06-19T14:45:20.125Z,24.80
2018-06-19T14:47:48.459Z,24.80
2018-06-19T14:50:16.788Z,24.70
2018-06-19T14:52:45.181Z,24.70
2018-06-19T14:55:13.503Z,24.60
2018-06-19T14:57:41.876Z,24.70
2018-06-19T15:00:10.981Z,24.40
2018-06-19T15:05:13.926Z,24.40
2018-06-19T15:07:47.567Z,24.40
2018-06-19T15:10:16.296Z,24.50
2018-06-19T15:12:44.629Z,24.50
2018-06-19T15:15:12.964Z,24.50
2018-06-19T15:17:41.435Z,24.50
2018-06-19T15:20:09.841Z,24.20
2018-06-19T15:22:38.166Z,24.30
2018-06-19T15:25:06.533Z,24.30
2018-06-19T15:27:34.894Z,24.30
2018-06-19T15:30:03.301Z,24.30
2018-06-19T15:32:31.865Z,24.40
2018-06-19T15:35:00.196Z,24.50
2018-06-19T15:37:28.556Z,24.40
2018-06-19T15:39:56.920Z,24.40
2018-06-19T15:42:25.332Z,24.30
2018-06-19T15:44:53.690Z,24.40
2018-06-19T15:47:22.036Z,24.50
2018-06-19T15:49:50.441Z,24.50
2018-06-19T15:52:18.815Z,24.60
2018-06-19T15:54:47.252Z,24.80
2018-06-19T15:57:15.619Z,24.40
2018-06-19T15:59:44.235Z,24.60
2018-06-19T16:02:13.052Z,24.70
2018-06-19T16:07:09.707Z,24.80
2018-06-19T16:09:38.052Z,24.90
2018-06-19T16:12:06.367Z,24.80
2018-06-19T16:14:34.717Z,24.80
2018-06-19T16:17:03.131Z,24.90
2018-06-19T16:19:31.475Z,24.90
2018-06-19T16:22:00.367Z,24.90
2018-06-19T16:24:28.704Z,24.90
2018-06-19T16:26:57.163Z,24.70
2018-06-19T16:29:25.668Z,24.40
2018-06-19T16:31:54.027Z,24.50
2018-06-19T16:34:22.414Z,24.30
2018-06-19T16:36:50.763Z,24.20
2018-06-19T16:39:25.580Z,24.30
2018-06-19T16:41:53.932Z,24.30
2018-06-19T16:44:22.299Z,24.40
2018-06-19T16:46:50.666Z,24.40
2018-06-19T16:49:19.048Z,24.40
2018-06-19T16:51:47.424Z,24.40
2018-06-19T16:54:15.816Z,24.40
2018-06-19T16:56:44.187Z,24.40
2018-06-19T16:59:12.556Z,24.40
2018-06-19T17:01:40.949Z,24.40
2018-06-19T17:04:09.321Z,24.40
2018-06-19T17:06:38.271Z,24.50
2018-06-19T17:11:35.583Z,24.50
2018-06-19T17:14:04.113Z,24.50
2018-06-19T17:16:32.533Z,24.40
2018-06-19T17:19:00.916Z,24.40
2018-06-19T17:21:29.270Z,24.30
2018-06-19T17:23:57.642Z,24.30
2018-06-19T17:26:25.973Z,24.30
2018-06-19T17:28:54.326Z,24.30
2018-06-19T17:31:22.675Z,24.30
2018-06-19T17:38:53.768Z,24.20
2018-06-19T17:41:22.162Z,24.20
2018-06-19T17:43:50.556Z,24.10
2018-06-19T17:46:18.907Z,24.10
2018-06-19T17:48:47.280Z,24.00
2018-06-19T17:51:16.356Z,23.90
2018-06-19T17:53:44.740Z,23.80
2018-06-19T17:56:13.068Z,23.70
2018-06-19T17:58:41.444Z,23.50
2018-06-19T18:01:09.808Z,23.50
2018-06-19T18:03:38.180Z,23.40
2018-06-19T18:06:06.571Z,23.30
2018-06-19T18:08:34.932Z,23.30
2018-06-19T18:11:03.314Z,23.20
2018-06-19T18:13:31.790Z,23.20
2018-06-19T18:16:00.601Z,23.00
2018-06-19T18:18:29.024Z,23.00
2018-06-19T18:20:57.396Z,22.90
2018-06-19T18:23:25.732Z,22.90
2018-06-19T18:25:54.110Z,22.80
2018-06-19T18:28:22.543Z,22.80
2018-06-19T18:30:50.997Z,22.70
2018-06-19T18:33:19.368Z,22.70
2018-06-19T18:38:15.798Z,22.60
2018-06-19T18:40:44.146Z,22.50
2018-06-19T18:43:12.531Z,22.40
2018-06-19T18:45:41.659Z,22.40
2018-06-19T18:48:10.009Z,22.30
2018-06-19T18:50:38.451Z,22.30
2018-06-19T18:53:06.860Z,22.20
2018-06-19T19:02:59.523Z,22.00
2018-06-19T19:05:27.846Z,22.00
2018-06-19T19:07:56.235Z,21.90
2018-06-19T19:10:29.820Z,21.80
2018-06-19T19:12:58.165Z,21.70
2018-06-19T19:15:32.477Z,21.60
2018-06-19T19:18:06.115Z,21.60
2018-06-19T19:20:34.604Z,21.50
2018-06-19T19:23:02.987Z,21.40
2018-06-19T19:25:32.051Z,21.40
2018-06-19T19:35:30.501Z,21.20
2018-06-19T19:38:04.182Z,21.10
2018-06-19T19:40:32.605Z,21.10
2018-06-19T19:43:01.441Z,21.00
2018-06-19T19:45:30.648Z,20.90
2018-06-19T19:48:04.365Z,20.70
2018-06-19T19:53:01.044Z,20.50
2018-06-19T19:55:29.406Z,20.40
2018-06-19T19:58:03.020Z,20.30
2018-06-19T20:00:31.392Z,20.30
2018-06-19T20:02:59.755Z,20.30
2018-06-19T20:05:28.477Z,20.20
2018-06-19T20:07:56.856Z,20.20
2018-06-19T20:10:25.756Z,20.20
2018-06-19T20:12:54.140Z,20.10
2018-06-19T20:15:22.464Z,20.10
2018-06-19T20:17:51.013Z,20.10
2018-06-19T20:20:19.332Z,20.10
2018-06-19T20:22:47.680Z,20.00
2018-06-19T20:25:16.120Z,20.00
2018-06-19T20:27:44.497Z,20.00
2018-06-19T20:30:12.852Z,19.90
2018-06-19T20:32:41.172Z,19.90
2018-06-19T20:35:09.546Z,19.70
2018-06-19T20:37:37.916Z,19.60
2018-06-19T20:40:06.250Z,19.50
2018-06-19T20:42:34.639Z,19.40
2018-06-19T20:45:03.037Z,19.40
2018-06-19T20:47:34.340Z,19.40
2018-06-19T20:50:02.746Z,19.30
2018-06-19T20:54:59.344Z,19.20
2018-06-19T20:57:27.682Z,19.20
2018-06-19T20:59:56.583Z,19.20
2018-06-19T21:02:24.983Z,19.20
2018-06-19T21:04:53.349Z,19.10
2018-06-19T21:07:21.706Z,19.10
2018-06-19T21:12:18.096Z,19.00
2018-06-19T21:14:46.520Z,18.90
2018-06-19T21:24:39.272Z,18.70
2018-06-19T21:27:07.711Z,18.70
2018-06-19T21:29:36.076Z,18.70
2018-06-19T21:32:04.636Z,18.70
2018-06-19T21:34:33.032Z,18.60
2018-06-19T21:37:01.348Z,18.60
2018-06-19T21:39:29.706Z,18.60
2018-06-19T21:44:26.064Z,18.50
2018-06-19T21:46:54.408Z,18.40
2018-06-19T21:49:22.739Z,18.40
2018-06-19T21:51:51.097Z,18.40
2018-06-19T21:54:19.442Z,18.40
2018-06-19T21:56:47.800Z,18.30
2018-06-19T21:59:16.207Z,18.30
2018-06-19T22:01:44.551Z,18.20
2018-06-19T22:04:12.906Z,18.20
2018-06-19T22:06:41.223Z,18.10
2018-06-19T22:09:09.588Z,18.10
2018-06-19T22:11:37.919Z,18.00
2018-06-19T22:14:06.372Z,18.00
2018-06-19T22:19:02.800Z,17.80
2018-06-19T22:21:31.200Z,17.80
2018-06-19T22:23:59.645Z,17.70
2018-06-19T22:26:28.005Z,17.70
2018-06-19T22:28:57.020Z,17.70
2018-06-19T22:31:25.472Z,17.70
2018-06-19T22:33:53.848Z,17.60
2018-06-19T22:36:22.182Z,17.60
2018-06-19T22:38:50.537Z,17.60
2018-06-19T22:41:18.907Z,17.50
2018-06-19T22:43:47.234Z,17.50
2018-06-19T22:51:11.702Z,17.40
2018-06-19T22:53:40.020Z,17.40
2018-06-19T22:56:09.101Z,17.40
2018-06-19T22:58:37.462Z,17.40
2018-06-19T23:01:06.057Z,17.30
2018-06-19T23:03:34.411Z,17.30
2018-06-19T23:06:02.865Z,17.30
2018-06-19T23:08:33.855Z,17.20
2018-06-19T23:11:02.357Z,17.10
2018-06-19T23:13:30.769Z,17.10
2018-06-19T23:15:59.114Z,17.10
2018-06-19T23:18:27.492Z,17.00
2018-06-19T23:20:55.861Z,17.00
2018-06-19T23:23:24.284Z,16.90
2018-06-19T23:25:52.531Z,16.90
2018-06-19T23:28:20.897Z,16.90
2018-06-19T23:30:49.234Z,16.90
2018-06-19T23:33:17.592Z,16.80
2018-06-19T23:35:45.931Z,16.80
2018-06-19T23:38:14.257Z,16.70
2018-06-19T23:40:42.641Z,16.70
2018-06-19T23:43:11.021Z,16.70
2018-06-19T23:45:39.408Z,16.60
2018-06-19T23:48:07.751Z,16.60
2018-06-19T23:50:36.176Z,16.60
2018-06-19T23:53:04.652Z,16.60
2018-06-19T23:55:32.986Z,16.60
2018-06-19T23:58:01.342Z,16.60
